Elliot Chaparral Reserve, California Weather observations

Data are for 10 minute period ending at time listed.
 Day   Time   Solar   Ave.   Ave.  Ave.  Vector  Max.   Baro.   Total    
  of    of     Rad.   Air    Rel.  Wind   Wind   Wind  Press.  Precip.   
Year   Day            Temp.  Hum.  Speed  Dir.   Gust                    
2017   (PST)  Kw/m2    F      %     mph   deg.    mph    mb.     in.     
-------------------------------------------------------------------------
 144   19:00   0.00   58.4    78    6.7   264     9.0   981.6    0.00 
 144   19:10   0.00   58.2    78    6.1   263     8.2   981.8    0.00 
 144   19:20   0.00   58.2    78    6.9   252     8.8   981.9    0.00 
 144   19:30   0.00   58.0    79    6.8   246     9.9   981.9    0.00 
 144   19:40   0.00   57.9    79    5.0   255     8.0   982.0    0.00 
 144   19:50   0.00   57.9    78    3.1   235     6.4   982.0    0.00 
 144   20:00   0.00   57.9    78    3.7   253     5.3   982.1    0.00 
 144   20:10   0.00   58.1    78    3.2   255     5.9   982.2    0.00 
 144   20:20   0.00   57.9    79    2.6   239     5.2   982.2    0.00 
 144   20:30   0.00   57.9    79    3.0   201     6.9   982.2    0.00 
 144   20:40   0.00   58.0    78    1.8   185     4.0   982.2    0.00 
 144   20:50   0.00   58.0    78    2.5   203     3.9   982.3    0.00 
 144   21:00   0.00   58.1    78    1.8   182     4.4   982.3    0.00 
 144   21:10   0.00   58.1    78    2.7   187     6.6   982.3    0.00 
 144   21:20   0.00   58.1    78    5.1   191     8.3   982.4    0.00 
 144   21:30   0.00   57.9    78    6.3   208     9.1   982.4    0.00 
 144   21:40   0.00   57.8    78    6.9   202     9.3   982.3    0.00 
 144   21:50   0.00   57.7    78    6.1   218     8.2   982.3    0.00 
 144   22:00   0.00   57.7    78    6.4   209     9.1   982.3    0.00 
 144   22:10   0.00   57.5    79    6.3   225     8.5   982.4    0.00 
 144   22:20   0.00   57.4    78    2.4   192     7.2   982.3    0.00 
 144   22:30   0.00   57.6    78    2.2   224     6.8   982.3    0.00 
 144   22:40   0.00   57.7    78    5.7   202     7.5   982.3    0.00 
 144   22:50   0.00   57.6    78    5.5   232     7.7   982.4    0.00 
 144   23:00   0.00   57.4    79    1.7   252     7.5   982.4    0.00 
 144   23:10   0.00   57.6    78    0.9   231     5.8   982.4    0.00 
 144   23:20   0.00   57.5    79    2.7   244     5.0   982.3    0.00 
 144   23:30   0.00   57.5    79    3.0   234     5.4   982.3    0.00 
 144   23:40   0.00   57.5    78    5.4   202     8.6   982.3    0.00 
 144   23:50   0.00   57.6    78    4.4   188     6.5   982.3    0.00 
 145    0:00   0.00   57.5    77    2.9   178     5.4   982.3    0.00 
 145    0:10   0.00   57.6    76    3.5   208     6.2   982.3    0.00 
 145    0:20   0.00   57.6    74    2.4   210     5.2   982.2    0.00 
 145    0:30   0.00   57.6    74    3.1   210     5.2   982.2    0.00 
 145    0:40   0.00   57.6    74    4.1   198     6.0   982.2    0.00 
 145    0:50   0.00   57.4    75    5.9   210     7.9   982.2    0.00 
 145    1:00   0.00   57.2    76    6.1   206     8.2   982.1    0.00 
 145    1:10   0.00   57.0    76    7.0   202     8.6   982.2    0.00 
 145    1:20   0.00   56.9    75    5.7   210     7.6   982.2    0.00 
 145    1:30   0.00   56.8    75    4.0   225     5.5   982.2    0.00 
 145    1:40   0.00   56.9    75    3.6   223     4.7   982.1    0.00 
 145    1:50   0.00   56.9    74    4.6   210     5.6   982.1    0.00 
 145    2:00   0.00   56.9    74    5.3   215     6.7   982.0    0.00 
 145    2:10   0.00   56.9    74    5.1   218     6.4   981.9    0.00 
 145    2:20   0.00   57.0    74    5.0   202     6.2   981.9    0.00 
 145    2:30   0.00   56.9    73    4.4   202     5.6   981.9    0.00 
 145    2:40   0.00   56.9    73    4.3   203     5.8   981.8    0.00 
 145    2:50   0.00   56.7    73    5.0   218     6.2   981.8    0.00 
 145    3:00   0.00   56.7    73    4.9   225     6.6   981.8    0.00 
 145    3:10   0.00   56.7    73    4.3   223     5.4   981.9    0.00 
 145    3:20   0.00   56.8    73    4.2   226     5.4   982.0    0.00 
 145    3:30   0.00   56.8    72    4.3   212     5.7   982.0    0.00 
 145    3:40   0.00   56.9    72    2.9   223     4.4   982.0    0.00 
 145    3:50   0.00   56.9    72    2.3   217     3.9   982.0    0.00 
 145    4:00   0.00   57.0    72    2.9   282     3.9   982.0    0.00 
 145    4:10   0.00   57.0    73    3.7   306     5.0   982.0    0.00 
 145    4:20   0.00   56.9    73    3.7   296     5.6   982.1    0.00 
 145    4:30   0.00   56.8    73    4.2   292     6.1   982.1    0.00 
 145    4:40   0.00   56.7    73    4.9   299     6.4   982.1    0.00 
 145    4:50   0.00   56.6    73    5.5   302     6.9   982.1    0.00 
 145    5:00   0.00   56.6    74    6.1   299     7.5   982.2    0.00 
 145    5:10   0.00   56.6    74    5.1   304     6.7   982.3    0.00 
 145    5:20   0.01   56.6    74    4.3   294     6.1   982.3    0.00 
 145    5:30   0.01   56.8    73    3.7   301     5.0   982.4    0.00 
 145    5:40   0.02   57.0    73    4.7   295     6.5   982.4    0.00 
 145    5:50   0.03   57.0    72    4.1   298     5.7   982.5    0.00 
 145    6:00   0.04   57.0    72    3.5   309     4.8   982.4    0.00 
 145    6:10   0.04   57.3    71    2.5   301     4.7   982.5    0.00 
 145    6:20   0.05   57.5    71    2.9   300     4.3   982.5    0.00 
 145    6:30   0.06   57.6    70    3.9   304     6.2   982.6    0.00 
 145    6:40   0.08   57.8    70    4.0   320     5.8   982.6    0.00 
 145    6:50   0.08   57.9    69    3.4   301     5.3   982.6    0.00 
 145    7:00   0.10   58.4    68    3.7   300     5.6   982.6    0.00 
 145    7:10   0.10   58.8    67    2.8   303     5.0   982.8    0.00 
 145    7:20   0.10   59.1    66    3.6   304     6.1   982.9    0.00 
 145    7:30   0.11   58.7    67    3.1   301     5.9   982.9    0.00 
 145    7:40   0.11   58.9    66    2.1   274     6.2   983.0    0.00 
 145    7:50   0.12   59.5    65    1.2   216     5.0   983.0    0.00 
 145    8:00   0.12   59.6    65    3.8   258     7.5   983.1    0.00 
 145    8:10   0.14   59.6    65    4.3   276     6.7   983.2    0.00 
 145    8:20   0.17   59.5    65    3.4   242     6.0   983.2    0.00 
 145    8:30   0.18   59.9    64    1.9   262     7.7   983.2    0.00 
 145    8:40   0.18   60.3    63    5.1   245     9.0   983.3    0.00 
 145    8:50   0.18   60.5    62    1.5   191     3.1   983.3    0.00 
 145    9:00   0.18   60.5    63    3.8   297     7.1   983.4    0.00 
 145    9:10   0.19   60.3    64    6.2   291    10.5   983.5    0.00 
 145    9:20   0.19   60.1    64    5.6   279     9.7   983.5    0.00 
 145    9:30   0.21   60.7    63    5.7   260    10.3   983.5    0.00 
 145    9:40   0.24   60.7    63    6.6   291     9.3   983.5    0.00 
 145    9:50   0.23   61.1    62    6.4   282     9.9   983.5    0.00 
 145   10:00   0.27   61.2    62    8.7   264    13.1   983.6    0.00 
 145   10:10   0.27   61.3    61    7.9   254    12.9   983.7    0.00 
 145   10:20   0.26   61.2    62    5.8   266     9.5   983.8    0.00 
 145   10:30   0.29   61.5    61    6.9   264     9.9   983.8    0.00 
 145   10:40   0.32   61.7    61    3.8   251     8.0   983.8    0.00 
 145   10:50   0.37   61.9    61    6.5   291    11.2   983.8    0.00 
 145   11:00   0.39   62.5    60    8.2   299    12.2   983.9    0.00 
 145   11:10   0.42   62.4    61    7.5   306    12.0   983.9    0.00 
 145   11:20   0.40   62.2    61    7.7   301    13.8   983.8    0.00 
 145   11:30   0.53   63.0    60    8.8   303    13.1   983.6    0.00 
 145   11:40   0.55   63.8    58    8.2   307    13.0   983.6    0.00 
 145   11:50   0.63   64.2    57    7.6   302    13.3   983.5    0.00 
 145   12:00   0.71   65.1    56    8.4   304    14.0   983.5    0.00 
 145   12:10   0.68   64.5    57    9.4   298    16.7   983.4    0.00 
 145   12:20   0.72   64.9    56   10.5   292    14.8   983.3    0.00 
 145   12:30   0.72   65.8    55    7.8   288    16.1   983.2    0.00 
 145   12:40   0.58   65.2    56    9.5   279    14.6   983.2    0.00 
 145   12:50   0.65   64.8    57   10.1   278    17.5   983.1    0.00 
 145   13:00   0.89   65.9    55   10.1   285    14.5   983.1    0.00 
 145   13:10   0.66   67.2    53   10.2   270    15.9   982.9    0.00 
 145   13:20   1.06   66.9    53   13.2   258    18.3   982.9    0.00 
 145   13:30   0.96   66.3    53   11.1   263    17.1   982.9    0.00 
 145   13:40   0.86   67.2    51   11.8   260    16.7   982.9    0.00 
 145   13:50   0.72   65.9    53   10.9   258    16.4   982.9    0.00 
 145   14:00   0.75   66.1    53   12.3   273    18.4   982.8    0.00 
 145   14:10   0.59   64.5    55   12.2   278    21.5   982.8    0.00 
 145   14:20   0.57   64.8    55   13.9   285    20.2   982.7    0.00 
 145   14:30   0.48   65.1    54   12.6   279    20.5   982.7    0.00 
 145   14:40   0.59   65.3    54   13.7   280    19.2   982.6    0.00 
 145   14:50   0.43   64.6    55   11.7   272    18.2   982.6    0.00 
 145   15:00   0.70   65.5    53   12.2   266    17.4   982.7    0.00 
 145   15:10   0.34   65.0    54   10.6   267    16.2   982.7    0.00 
 145   15:20   0.32   64.2    56    9.7   270    13.2   982.7    0.00 
 145   15:30   0.29   63.8    56   10.0   250    15.9   982.6    0.00 
 145   15:40   0.25   63.5    57   11.3   268    16.7   982.6    0.00 
 145   15:50   0.23   63.3    57   10.1   268    14.2   982.7    0.00 
 145   16:00   0.27   63.2    57   10.6   292    16.1   982.6    0.00 
 145   16:10   0.24   63.5    57   10.4   259    15.3   982.6    0.00 
 145   16:20   0.20   62.9    58    9.8   293    13.7   982.6    0.00 
 145   16:30   0.18   62.6    59   11.0   287    14.8   982.6    0.00 
 145   16:40   0.16   62.0    60    9.9   266    15.8   982.6    0.00 
 145   16:50   0.14   62.0    60   10.0   261    14.3   982.5    0.00 
 145   17:00   0.11   61.5    61   10.4   271    15.1   982.5    0.00 
 145   17:10   0.09   61.0    62    8.7   278    14.5   982.5    0.00 
 145   17:20   0.08   61.3    61    7.7   275    11.8   982.6    0.00 
 145   17:30   0.08   60.9    62    9.0   263    12.1   982.6    0.00 
 145   17:40   0.08   60.8    62   10.1   268    13.3   982.5    0.00 
 145   17:50   0.05   60.4    63    9.2   283    12.7   982.7    0.00 
 145   18:00   0.04   60.1    64    8.1   268    11.0   982.7    0.00 
 145   18:10   0.03   60.0    64    7.3   272    10.7   982.6    0.00 
 145   18:20   0.02   59.7    66    8.5   276    12.1   982.7    0.00 
 145   18:30   0.01   59.4    67    7.5   281    10.2   982.8    0.00 
 145   18:40   0.00   59.3    68    7.5   272    10.4   982.8    0.00 
 145   18:50   0.00   59.1    68    7.1   278     9.6   982.9    0.00 

Return to Elliot Chaparral Reserve graphs page.


Western Regional Climate Center,wrcc@dri.edu